AXY75 EGCC-LEMD
Flight info
| Callsign | AXY75 |
|---|---|
| Flight time | 2h 4m |
| Altitude | 23000 |
| Route | ASMIM DCT NOKIN P17 BEPHE/N0473F400 DCT OSSEP DCT ELNIF DCT ZESPE DCT DAWLY DCT BHD DCT SALCO/N0475F410 DCT GOPIN DCT DELOG N864 NONTU |
| Aircraft | A343/H-SDE2E3FGHIJ4J5M1RWXY/LB1D1 |
Departure
| Time | 2026-05-05 20:25 |
|---|---|
| Airport | Manchester Airport (EGCC) |
Arrival
| Time | 2026-05-05 22:29 |
|---|---|
| Airport | Adolfo Suárez Madrid–Barajas Airport (LEMD) |
| Time | Latitude | Longitude | Altitude | Speed | Heading |
|---|---|---|---|---|---|
| 2026-05-05 17:15 | 53.36418 | -2.28251 | 259 ft | 0 kts | 44° |
| 2026-05-05 20:14 | 53.36417 | -2.28253 | 259 ft | 2 kts | 44° |
| 2026-05-05 20:14 | 53.36401 | -2.28280 | 259 ft | 2 kts | 45° |
| 2026-05-05 20:14 | 53.36384 | -2.28310 | 259 ft | 4 kts | 52° |
| 2026-05-05 20:14 | 53.36372 | -2.28346 | 259 ft | 4 kts | 92° |
| 2026-05-05 20:15 | 53.36374 | -2.28365 | 259 ft | 3 kts | 135° |
| 2026-05-05 20:15 | 53.36355 | -2.28333 | 259 ft | 4 kts | 135° |
| 2026-05-05 20:15 | 53.36336 | -2.28301 | 259 ft | 4 kts | 135° |
| 2026-05-05 20:15 | 53.36317 | -2.28269 | 259 ft | 4 kts | 135° |
| 2026-05-05 20:16 | 53.36298 | -2.28237 | 259 ft | 4 kts | 135° |
| 2026-05-05 20:16 | 53.36284 | -2.28214 | 259 ft | 0 kts | 135° |
| 2026-05-05 20:18 | 53.36284 | -2.28213 | 259 ft | 1 kts | 134° |
| 2026-05-05 20:18 | 53.36270 | -2.28183 | 259 ft | 6 kts | 127° |
| 2026-05-05 20:19 | 53.36234 | -2.28107 | 259 ft | 11 kts | 129° |
| 2026-05-05 20:19 | 53.36171 | -2.27997 | 259 ft | 15 kts | 136° |
| 2026-05-05 20:19 | 53.36094 | -2.27889 | 259 ft | 13 kts | 144° |
| 2026-05-05 20:19 | 53.36023 | -2.27908 | 259 ft | 11 kts | 196° |
| 2026-05-05 20:20 | 53.35951 | -2.27866 | 259 ft | 13 kts | 159° |
| 2026-05-05 20:20 | 53.35846 | -2.27856 | 257 ft | 18 kts | 185° |
| 2026-05-05 20:20 | 53.35716 | -2.27878 | 250 ft | 16 kts | 187° |
| 2026-05-05 20:20 | 53.35621 | -2.27917 | 244 ft | 13 kts | 216° |
| 2026-05-05 20:21 | 53.35548 | -2.28053 | 239 ft | 19 kts | 225° |
| 2026-05-05 20:21 | 53.35432 | -2.28152 | 240 ft | 15 kts | 189° |
| 2026-05-05 20:21 | 53.35322 | -2.28192 | 238 ft | 18 kts | 200° |
| 2026-05-05 20:21 | 53.35229 | -2.28304 | 236 ft | 11 kts | 228° |
| 2026-05-05 20:22 | 53.35165 | -2.28429 | 235 ft | 17 kts | 230° |
| 2026-05-05 20:22 | 53.35082 | -2.28600 | 238 ft | 19 kts | 231° |
| 2026-05-05 20:22 | 53.34987 | -2.28786 | 231 ft | 23 kts | 227° |
| 2026-05-05 20:22 | 53.34873 | -2.28991 | 227 ft | 24 kts | 228° |
| 2026-05-05 20:23 | 53.34774 | -2.29179 | 224 ft | 20 kts | 230° |
| 2026-05-05 20:23 | 53.34682 | -2.29319 | 224 ft | 16 kts | 205° |
| 2026-05-05 20:23 | 53.34575 | -2.29317 | 219 ft | 16 kts | 156° |
| 2026-05-05 20:23 | 53.34549 | -2.29218 | 224 ft | 9 kts | 71° |
| 2026-05-05 20:24 | 53.34592 | -2.29119 | 225 ft | 15 kts | 52° |
| 2026-05-05 20:24 | 53.34751 | -2.28787 | 228 ft | 68 kts | 51° |
| 2026-05-05 20:24 | 53.35185 | -2.27893 | 240 ft | 129 kts | 51° |
| 2026-05-05 20:24 | 53.35809 | -2.26566 | 687 ft | 148 kts | 53° |
| 2026-05-05 20:25 | 53.36452 | -2.25190 | 1521 ft | 153 kts | 52° |
| 2026-05-05 20:25 | 53.37266 | -2.23915 | 2199 ft | 173 kts | 31° |
| 2026-05-05 20:25 | 53.38555 | -2.23739 | 2846 ft | 206 kts | 348° |
| 2026-05-05 20:25 | 53.39845 | -2.25155 | 3390 ft | 242 kts | 317° |
| 2026-05-05 20:26 | 53.41050 | -2.27326 | 4185 ft | 262 kts | 314° |
| 2026-05-05 20:26 | 53.42292 | -2.29585 | 5375 ft | 262 kts | 313° |
| 2026-05-05 20:26 | 53.43534 | -2.31833 | 6672 ft | 264 kts | 312° |
| 2026-05-05 20:26 | 53.44681 | -2.34198 | 7993 ft | 258 kts | 303° |
| 2026-05-05 20:27 | 53.45556 | -2.36810 | 9276 ft | 259 kts | 299° |
| 2026-05-05 20:27 | 53.46371 | -2.39545 | 10259 ft | 267 kts | 296° |
| 2026-05-05 20:27 | 53.46915 | -2.42622 | 10976 ft | 284 kts | 278° |
| 2026-05-05 20:27 | 53.46810 | -2.45976 | 11657 ft | 301 kts | 263° |
| 2026-05-05 20:28 | 53.46423 | -2.49508 | 12314 ft | 314 kts | 261° |
| 2026-05-05 20:28 | 53.45989 | -2.53193 | 12929 ft | 330 kts | 261° |
| 2026-05-05 20:28 | 53.45511 | -2.57038 | 13559 ft | 343 kts | 257° |
| 2026-05-05 20:28 | 53.44663 | -2.60884 | 14135 ft | 359 kts | 244° |
| 2026-05-05 20:29 | 53.43218 | -2.64354 | 14879 ft | 368 kts | 229° |
| 2026-05-05 20:29 | 53.41236 | -2.67117 | 15744 ft | 375 kts | 214° |
| 2026-05-05 20:29 | 53.38895 | -2.69124 | 16596 ft | 380 kts | 206° |
| 2026-05-05 20:29 | 53.36429 | -2.70809 | 17462 ft | 385 kts | 203° |
| 2026-05-05 20:30 | 53.33898 | -2.72343 | 18298 ft | 389 kts | 201° |
| 2026-05-05 20:30 | 53.31334 | -2.73835 | 19023 ft | 393 kts | 201° |
| 2026-05-05 20:30 | 53.28744 | -2.75344 | 19757 ft | 396 kts | 202° |
| 2026-05-05 20:30 | 53.26135 | -2.76894 | 20484 ft | 399 kts | 202° |
| 2026-05-05 20:31 | 53.23508 | -2.78484 | 21202 ft | 403 kts | 202° |
| 2026-05-05 20:31 | 53.20869 | -2.80105 | 21880 ft | 407 kts | 202° |
| 2026-05-05 20:31 | 53.18203 | -2.81756 | 22525 ft | 411 kts | 202° |
| 2026-05-05 20:31 | 53.15544 | -2.83406 | 23178 ft | 414 kts | 203° |
| 2026-05-05 20:32 | 53.12832 | -2.85089 | 23796 ft | 418 kts | 203° |
| 2026-05-05 20:32 | 53.10049 | -2.86575 | 24313 ft | 423 kts | 196° |
| 2026-05-05 20:32 | 53.07122 | -2.87362 | 24831 ft | 430 kts | 186° |
| 2026-05-05 20:32 | 53.04113 | -2.87272 | 25354 ft | 435 kts | 178° |
| 2026-05-05 20:33 | 53.01090 | -2.86702 | 25851 ft | 440 kts | 174° |
| 2026-05-05 20:33 | 52.98057 | -2.85926 | 26348 ft | 443 kts | 173° |
| 2026-05-05 20:33 | 52.95003 | -2.85050 | 26787 ft | 447 kts | 172° |
| 2026-05-05 20:33 | 52.91927 | -2.84143 | 27227 ft | 451 kts | 172° |
| 2026-05-05 20:34 | 52.88828 | -2.83243 | 27686 ft | 453 kts | 172° |
| 2026-05-05 20:34 | 52.85711 | -2.82361 | 28131 ft | 456 kts | 172° |
| 2026-05-05 20:34 | 52.82570 | -2.81493 | 28575 ft | 459 kts | 172° |
| 2026-05-05 20:34 | 52.79412 | -2.80635 | 28993 ft | 462 kts | 172° |
| 2026-05-05 20:35 | 52.76233 | -2.79775 | 29411 ft | 464 kts | 172° |
| 2026-05-05 20:35 | 52.73033 | -2.78919 | 29839 ft | 467 kts | 172° |
| 2026-05-05 20:35 | 52.69809 | -2.78060 | 30155 ft | 471 kts | 172° |
| 2026-05-05 20:35 | 52.66604 | -2.77203 | 30445 ft | 474 kts | 172° |
| 2026-05-05 20:36 | 52.63333 | -2.76368 | 30778 ft | 476 kts | 174° |
| 2026-05-05 20:36 | 52.60020 | -2.76043 | 31114 ft | 477 kts | 182° |
| 2026-05-05 20:36 | 52.56708 | -2.76148 | 31571 ft | 475 kts | 183° |
| 2026-05-05 20:36 | 52.53405 | -2.76371 | 32028 ft | 474 kts | 184° |
| 2026-05-05 20:37 | 52.50118 | -2.76656 | 32473 ft | 473 kts | 184° |
| 2026-05-05 20:37 | 52.46835 | -2.76969 | 32799 ft | 475 kts | 184° |
| 2026-05-05 20:37 | 52.43523 | -2.77285 | 33083 ft | 477 kts | 184° |
| 2026-05-05 20:37 | 52.40204 | -2.77592 | 33467 ft | 478 kts | 184° |
| 2026-05-05 20:38 | 52.36886 | -2.77889 | 33908 ft | 476 kts | 184° |
| 2026-05-05 20:38 | 52.33583 | -2.78179 | 34322 ft | 474 kts | 184° |
| 2026-05-05 20:38 | 52.30296 | -2.78462 | 34709 ft | 473 kts | 184° |
| 2026-05-05 20:38 | 52.27012 | -2.78743 | 35050 ft | 472 kts | 184° |
| 2026-05-05 20:39 | 52.23740 | -2.79022 | 35397 ft | 471 kts | 184° |
| 2026-05-05 20:39 | 52.20462 | -2.79302 | 35754 ft | 470 kts | 184° |
| 2026-05-05 20:39 | 52.17203 | -2.79580 | 36083 ft | 470 kts | 184° |
| 2026-05-05 20:39 | 52.13937 | -2.79859 | 36392 ft | 469 kts | 184° |
| 2026-05-05 20:40 | 52.10718 | -2.80133 | 36703 ft | 469 kts | 184° |
| 2026-05-05 20:40 | 52.07462 | -2.80410 | 37022 ft | 469 kts | 184° |
| 2026-05-05 20:40 | 52.04203 | -2.80688 | 37331 ft | 468 kts | 184° |
| 2026-05-05 20:40 | 52.00946 | -2.80969 | 37638 ft | 468 kts | 184° |
| 2026-05-05 20:41 | 51.97699 | -2.81245 | 37968 ft | 467 kts | 184° |
| 2026-05-05 20:41 | 51.94455 | -2.81518 | 38301 ft | 467 kts | 184° |
| 2026-05-05 20:41 | 51.91214 | -2.81790 | 38620 ft | 466 kts | 184° |
| 2026-05-05 20:41 | 51.87977 | -2.82062 | 38860 ft | 466 kts | 184° |
| 2026-05-05 20:42 | 51.84733 | -2.82337 | 39059 ft | 467 kts | 184° |
| 2026-05-05 20:42 | 51.81502 | -2.82801 | 39259 ft | 467 kts | 188° |
| 2026-05-05 20:42 | 51.78284 | -2.83489 | 39471 ft | 466 kts | 189° |
| 2026-05-05 20:42 | 51.75063 | -2.84268 | 39671 ft | 467 kts | 190° |
| 2026-05-05 20:43 | 51.71856 | -2.85054 | 39886 ft | 466 kts | 190° |
| 2026-05-05 20:43 | 51.68643 | -2.85819 | 40094 ft | 467 kts | 189° |
| 2026-05-05 20:43 | 51.65473 | -2.86543 | 40285 ft | 467 kts | 189° |
| 2026-05-05 20:43 | 51.62249 | -2.87254 | 40478 ft | 467 kts | 189° |
| 2026-05-05 20:44 | 51.59024 | -2.87948 | 40678 ft | 467 kts | 189° |
| 2026-05-05 20:44 | 51.55821 | -2.88848 | 40860 ft | 466 kts | 195° |
| 2026-05-05 20:44 | 51.52713 | -2.90337 | 40984 ft | 467 kts | 199° |
| 2026-05-05 20:45 | 51.43423 | -2.95758 | 41004 ft | 480 kts | 202° |
| 2026-05-05 20:45 | 51.37143 | -2.99583 | 41005 ft | 483 kts | 202° |
| 2026-05-05 20:46 | 51.30858 | -3.03365 | 40984 ft | 482 kts | 201° |
| 2026-05-05 20:46 | 51.24567 | -3.07112 | 40990 ft | 482 kts | 201° |
| 2026-05-05 20:47 | 51.18318 | -3.10816 | 40991 ft | 482 kts | 201° |
| 2026-05-05 20:47 | 51.12029 | -3.14535 | 40983 ft | 482 kts | 201° |
| 2026-05-05 20:48 | 51.05728 | -3.18251 | 40989 ft | 482 kts | 201° |
| 2026-05-05 20:48 | 50.99435 | -3.21953 | 40989 ft | 482 kts | 201° |
| 2026-05-05 20:49 | 50.93141 | -3.25645 | 40994 ft | 482 kts | 201° |
| 2026-05-05 20:49 | 50.86846 | -3.29326 | 40993 ft | 482 kts | 201° |
| 2026-05-05 20:50 | 50.80543 | -3.33002 | 40999 ft | 483 kts | 201° |
| 2026-05-05 20:50 | 50.74223 | -3.36677 | 40997 ft | 484 kts | 201° |
| 2026-05-05 20:51 | 50.67907 | -3.40339 | 40992 ft | 484 kts | 201° |
| 2026-05-05 20:51 | 50.61589 | -3.43991 | 40980 ft | 483 kts | 201° |
| 2026-05-05 20:52 | 50.55131 | -3.46682 | 40977 ft | 485 kts | 189° |
| 2026-05-05 20:52 | 50.48437 | -3.48025 | 40979 ft | 485 kts | 187° |
| 2026-05-05 20:53 | 50.41723 | -3.49121 | 40983 ft | 485 kts | 187° |
| 2026-05-05 20:53 | 50.34982 | -3.49974 | 40976 ft | 486 kts | 183° |
| 2026-05-05 20:54 | 50.28216 | -3.50213 | 40990 ft | 487 kts | 182° |
| 2026-05-05 20:54 | 50.21441 | -3.50424 | 40971 ft | 487 kts | 182° |
| 2026-05-05 20:55 | 50.14671 | -3.50737 | 40976 ft | 487 kts | 183° |
| 2026-05-05 20:55 | 50.07900 | -3.51103 | 40983 ft | 487 kts | 183° |
| 2026-05-05 20:56 | 50.01135 | -3.51477 | 40980 ft | 487 kts | 183° |
| 2026-05-05 20:56 | 49.94364 | -3.51846 | 40969 ft | 487 kts | 183° |
| 2026-05-05 20:57 | 49.87647 | -3.52209 | 40977 ft | 487 kts | 183° |
| 2026-05-05 20:57 | 49.80861 | -3.52573 | 40976 ft | 488 kts | 183° |
| 2026-05-05 20:58 | 49.74074 | -3.52937 | 40974 ft | 488 kts | 183° |
| 2026-05-05 20:58 | 49.67293 | -3.53319 | 40974 ft | 488 kts | 183° |
| 2026-05-05 20:59 | 49.60503 | -3.53728 | 40974 ft | 489 kts | 183° |
| 2026-05-05 20:59 | 49.53707 | -3.54134 | 40973 ft | 489 kts | 183° |
| 2026-05-05 21:00 | 49.46911 | -3.54535 | 40974 ft | 489 kts | 183° |
| 2026-05-05 21:00 | 49.40108 | -3.54932 | 40977 ft | 489 kts | 184° |
| 2026-05-05 21:01 | 49.33315 | -3.55329 | 40974 ft | 489 kts | 184° |
| 2026-05-05 21:01 | 49.26567 | -3.55721 | 40980 ft | 489 kts | 183° |
| 2026-05-05 21:02 | 49.19752 | -3.56116 | 40979 ft | 490 kts | 184° |
| 2026-05-05 21:02 | 49.12940 | -3.56510 | 40979 ft | 490 kts | 184° |
| 2026-05-05 21:03 | 49.06121 | -3.56904 | 40983 ft | 490 kts | 183° |
| 2026-05-05 21:03 | 48.99297 | -3.57296 | 40985 ft | 490 kts | 183° |
| 2026-05-05 21:04 | 48.92485 | -3.57687 | 40989 ft | 490 kts | 183° |
| 2026-05-05 21:04 | 48.85664 | -3.58077 | 40991 ft | 490 kts | 183° |
| 2026-05-05 21:05 | 48.78847 | -3.58466 | 40993 ft | 490 kts | 183° |
| 2026-05-05 21:05 | 48.72034 | -3.58854 | 40993 ft | 490 kts | 183° |
| 2026-05-05 21:06 | 48.65261 | -3.59238 | 40992 ft | 490 kts | 183° |
| 2026-05-05 21:06 | 48.58439 | -3.59624 | 40989 ft | 490 kts | 183° |
| 2026-05-05 21:07 | 48.51619 | -3.60009 | 40989 ft | 490 kts | 183° |
| 2026-05-05 21:07 | 48.44801 | -3.60393 | 40987 ft | 490 kts | 183° |
| 2026-05-05 21:08 | 48.39147 | -3.60711 | 40985 ft | 490 kts | 183° |
| 2026-05-05 21:08 | 48.31226 | -3.61155 | 40994 ft | 490 kts | 183° |
| 2026-05-05 21:09 | 48.25516 | -3.61476 | 40993 ft | 490 kts | 183° |
| 2026-05-05 21:09 | 48.18746 | -3.61854 | 40987 ft | 490 kts | 183° |
| 2026-05-05 21:10 | 48.11938 | -3.62233 | 40984 ft | 490 kts | 183° |
| 2026-05-05 21:10 | 48.05121 | -3.62612 | 40988 ft | 490 kts | 182° |
| 2026-05-05 21:11 | 47.98300 | -3.62988 | 40982 ft | 490 kts | 183° |
| 2026-05-05 21:11 | 47.91477 | -3.63364 | 40982 ft | 490 kts | 183° |
| 2026-05-05 21:12 | 47.84644 | -3.63738 | 40983 ft | 491 kts | 183° |
| 2026-05-05 21:12 | 47.77810 | -3.64112 | 40969 ft | 491 kts | 183° |
| 2026-05-05 21:13 | 47.71029 | -3.64481 | 40968 ft | 491 kts | 183° |
| 2026-05-05 21:13 | 47.64159 | -3.64855 | 40969 ft | 491 kts | 183° |
| 2026-05-05 21:14 | 47.57364 | -3.65225 | 40970 ft | 491 kts | 183° |
| 2026-05-05 21:14 | 47.50530 | -3.65596 | 40972 ft | 492 kts | 182° |
| 2026-05-05 21:15 | 47.43687 | -3.65966 | 40973 ft | 492 kts | 183° |
| 2026-05-05 21:15 | 47.36838 | -3.66336 | 40977 ft | 492 kts | 183° |
| 2026-05-05 21:16 | 47.29993 | -3.66704 | 40976 ft | 492 kts | 183° |
| 2026-05-05 21:16 | 47.23189 | -3.67070 | 40974 ft | 492 kts | 183° |
| 2026-05-05 21:17 | 47.16349 | -3.67436 | 40974 ft | 492 kts | 183° |
| 2026-05-05 21:17 | 47.09505 | -3.67802 | 40974 ft | 492 kts | 183° |
| 2026-05-05 21:18 | 47.02662 | -3.68173 | 40974 ft | 492 kts | 183° |
| 2026-05-05 21:18 | 46.95834 | -3.68904 | 40973 ft | 492 kts | 186° |
| 2026-05-05 21:19 | 46.89012 | -3.69816 | 40969 ft | 492 kts | 186° |
| 2026-05-05 21:19 | 46.82238 | -3.70676 | 40971 ft | 493 kts | 186° |
| 2026-05-05 21:20 | 46.75400 | -3.71494 | 40971 ft | 492 kts | 186° |
| 2026-05-05 21:20 | 46.68569 | -3.72291 | 40971 ft | 493 kts | 186° |
| 2026-05-05 21:21 | 46.61732 | -3.73088 | 40977 ft | 492 kts | 186° |
| 2026-05-05 21:21 | 46.54897 | -3.73884 | 40974 ft | 492 kts | 186° |
| 2026-05-05 21:22 | 46.48068 | -3.74679 | 40970 ft | 492 kts | 185° |
| 2026-05-05 21:22 | 46.41232 | -3.75473 | 40971 ft | 492 kts | 186° |
| 2026-05-05 21:23 | 46.34400 | -3.76264 | 40971 ft | 493 kts | 185° |
| 2026-05-05 21:23 | 46.27566 | -3.77054 | 40970 ft | 493 kts | 186° |
| 2026-05-05 21:24 | 46.20727 | -3.77843 | 40974 ft | 493 kts | 185° |
| 2026-05-05 21:24 | 46.13939 | -3.78624 | 40972 ft | 493 kts | 185° |
| 2026-05-05 21:25 | 46.07102 | -3.79409 | 40969 ft | 493 kts | 186° |
| 2026-05-05 21:25 | 46.00264 | -3.80192 | 40974 ft | 493 kts | 186° |
| 2026-05-05 21:26 | 45.93417 | -3.80974 | 40974 ft | 493 kts | 186° |
| 2026-05-05 21:26 | 45.86582 | -3.81753 | 40972 ft | 492 kts | 187° |
| 2026-05-05 21:27 | 45.79748 | -3.82528 | 40971 ft | 492 kts | 186° |
| 2026-05-05 21:27 | 45.72922 | -3.83300 | 40973 ft | 492 kts | 187° |
| 2026-05-05 21:28 | 45.66093 | -3.84071 | 40974 ft | 492 kts | 186° |
| 2026-05-05 21:28 | 45.59281 | -3.84837 | 40976 ft | 491 kts | 186° |
| 2026-05-05 21:29 | 45.52502 | -3.85598 | 40979 ft | 491 kts | 186° |
| 2026-05-05 21:29 | 45.45690 | -3.86362 | 40982 ft | 491 kts | 186° |
| 2026-05-05 21:30 | 45.38879 | -3.87123 | 40985 ft | 491 kts | 186° |
| 2026-05-05 21:30 | 45.32063 | -3.87885 | 40991 ft | 491 kts | 186° |
| 2026-05-05 21:31 | 45.25243 | -3.88643 | 40991 ft | 492 kts | 186° |
| 2026-05-05 21:31 | 45.18424 | -3.89401 | 40993 ft | 492 kts | 186° |
| 2026-05-05 21:32 | 45.11601 | -3.90157 | 40992 ft | 492 kts | 186° |
| 2026-05-05 21:32 | 45.04780 | -3.90910 | 40996 ft | 491 kts | 186° |
| 2026-05-05 21:33 | 44.97960 | -3.91663 | 40996 ft | 491 kts | 186° |
| 2026-05-05 21:33 | 44.91191 | -3.92407 | 40996 ft | 491 kts | 186° |
| 2026-05-05 21:34 | 44.84379 | -3.93155 | 41002 ft | 491 kts | 186° |
| 2026-05-05 21:34 | 44.77561 | -3.93901 | 41004 ft | 491 kts | 186° |
| 2026-05-05 21:35 | 44.70747 | -3.94646 | 41004 ft | 491 kts | 186° |
| 2026-05-05 21:35 | 44.63939 | -3.95388 | 41004 ft | 490 kts | 186° |
| 2026-05-05 21:36 | 44.57177 | -3.96123 | 41007 ft | 491 kts | 186° |
| 2026-05-05 21:36 | 44.50363 | -3.96862 | 41007 ft | 490 kts | 186° |
| 2026-05-05 21:37 | 44.43565 | -3.97597 | 41012 ft | 490 kts | 186° |
| 2026-05-05 21:37 | 44.36772 | -3.98331 | 41018 ft | 490 kts | 186° |
| 2026-05-05 21:38 | 44.29990 | -3.98438 | 41018 ft | 491 kts | 179° |
| 2026-05-05 21:38 | 44.23162 | -3.97854 | 41018 ft | 491 kts | 178° |
| 2026-05-05 21:39 | 44.16339 | -3.97161 | 41018 ft | 492 kts | 178° |
| 2026-05-05 21:39 | 44.09509 | -3.96468 | 41026 ft | 491 kts | 178° |
| 2026-05-05 21:40 | 44.02689 | -3.95797 | 41024 ft | 491 kts | 178° |
| 2026-05-05 21:40 | 43.95869 | -3.95135 | 41023 ft | 491 kts | 178° |
| 2026-05-05 21:41 | 43.89091 | -3.94480 | 41031 ft | 491 kts | 178° |
| 2026-05-05 21:41 | 43.82263 | -3.93822 | 41041 ft | 492 kts | 178° |
| 2026-05-05 21:42 | 43.75440 | -3.93164 | 41042 ft | 492 kts | 179° |
| 2026-05-05 21:42 | 43.68609 | -3.92503 | 41048 ft | 492 kts | 179° |
| 2026-05-05 21:43 | 43.61776 | -3.91851 | 41046 ft | 492 kts | 179° |
| 2026-05-05 21:43 | 43.54945 | -3.91198 | 41039 ft | 492 kts | 179° |
| 2026-05-05 21:44 | 43.48117 | -3.90546 | 41048 ft | 492 kts | 179° |
| 2026-05-05 21:44 | 43.41357 | -3.90796 | 41048 ft | 488 kts | 188° |
| 2026-05-05 21:45 | 43.34599 | -3.91717 | 41047 ft | 488 kts | 189° |
| 2026-05-05 21:45 | 43.27853 | -3.92747 | 41053 ft | 487 kts | 189° |
| 2026-05-05 21:46 | 43.21117 | -3.93770 | 41058 ft | 487 kts | 189° |
| 2026-05-05 21:46 | 43.14376 | -3.94773 | 41063 ft | 487 kts | 189° |
| 2026-05-05 21:47 | 43.07644 | -3.95762 | 41062 ft | 486 kts | 189° |
| 2026-05-05 21:47 | 43.00911 | -3.96749 | 41068 ft | 486 kts | 189° |
| 2026-05-05 21:48 | 42.94228 | -3.97729 | 41070 ft | 486 kts | 189° |
| 2026-05-05 21:48 | 42.87495 | -3.98718 | 41081 ft | 487 kts | 189° |
| 2026-05-05 21:49 | 42.80752 | -3.99698 | 41076 ft | 487 kts | 189° |
| 2026-05-05 21:49 | 42.74005 | -4.00677 | 41076 ft | 487 kts | 189° |
| 2026-05-05 21:50 | 42.67262 | -4.01655 | 41074 ft | 487 kts | 189° |
| 2026-05-05 21:50 | 42.60520 | -4.02632 | 41077 ft | 487 kts | 189° |
| 2026-05-05 21:51 | 42.53781 | -4.03606 | 41047 ft | 487 kts | 189° |
| 2026-05-05 21:51 | 42.47076 | -4.04573 | 41073 ft | 487 kts | 189° |
| 2026-05-05 21:52 | 42.36970 | -4.06026 | 41065 ft | 487 kts | 189° |
| 2026-05-05 21:53 | 42.30233 | -4.06993 | 41066 ft | 487 kts | 189° |
| 2026-05-05 21:53 | 42.23502 | -4.07957 | 41060 ft | 486 kts | 189° |
| 2026-05-05 21:54 | 42.16776 | -4.08917 | 41061 ft | 486 kts | 189° |
| 2026-05-05 21:54 | 42.10042 | -4.09877 | 41049 ft | 486 kts | 189° |
| 2026-05-05 21:55 | 42.03322 | -4.10833 | 41055 ft | 485 kts | 189° |
| 2026-05-05 21:55 | 41.96596 | -4.11659 | 41055 ft | 486 kts | 188° |
| 2026-05-05 21:56 | 41.89900 | -4.12396 | 41040 ft | 485 kts | 188° |
| 2026-05-05 21:56 | 41.83238 | -4.13142 | 41053 ft | 475 kts | 188° |
| 2026-05-05 21:57 | 41.76681 | -4.13885 | 41051 ft | 472 kts | 188° |
| 2026-05-05 21:57 | 41.73412 | -4.14256 | 40948 ft | 472 kts | 188° |
| 2026-05-05 21:57 | 41.70146 | -4.14627 | 40707 ft | 470 kts | 189° |
| 2026-05-05 21:57 | 41.66886 | -4.14996 | 40457 ft | 469 kts | 189° |
| 2026-05-05 21:58 | 41.63629 | -4.15365 | 40230 ft | 469 kts | 189° |
| 2026-05-05 21:58 | 41.60384 | -4.15732 | 39958 ft | 467 kts | 189° |
| 2026-05-05 21:58 | 41.57152 | -4.16096 | 39488 ft | 466 kts | 189° |
| 2026-05-05 21:58 | 41.53915 | -4.16462 | 38951 ft | 467 kts | 189° |
| 2026-05-05 21:59 | 41.50678 | -4.16828 | 38301 ft | 468 kts | 190° |
| 2026-05-05 21:59 | 41.47437 | -4.17196 | 37675 ft | 467 kts | 190° |
| 2026-05-05 21:59 | 41.44206 | -4.17558 | 37111 ft | 465 kts | 191° |
| 2026-05-05 21:59 | 41.40992 | -4.17918 | 36522 ft | 464 kts | 191° |
| 2026-05-05 22:00 | 41.37776 | -4.18279 | 35922 ft | 463 kts | 191° |
| 2026-05-05 22:00 | 41.34566 | -4.18639 | 35257 ft | 463 kts | 191° |
| 2026-05-05 22:00 | 41.31358 | -4.18998 | 34562 ft | 463 kts | 191° |
| 2026-05-05 22:00 | 41.28141 | -4.19359 | 33790 ft | 464 kts | 192° |
| 2026-05-05 22:01 | 41.24959 | -4.19706 | 32912 ft | 465 kts | 191° |
| 2026-05-05 22:01 | 41.21714 | -4.19922 | 32076 ft | 467 kts | 189° |
| 2026-05-05 22:01 | 41.18458 | -4.20089 | 31194 ft | 469 kts | 189° |
| 2026-05-05 22:01 | 41.15186 | -4.20264 | 30294 ft | 471 kts | 189° |
| 2026-05-05 22:02 | 41.13020 | -4.20385 | 29680 ft | 471 kts | 189° |
| 2026-05-05 22:02 | 41.09768 | -4.20569 | 29106 ft | 462 kts | 189° |
| 2026-05-05 22:02 | 41.05552 | -4.20812 | 28341 ft | 452 kts | 189° |
| 2026-05-05 22:02 | 41.02436 | -4.20996 | 27750 ft | 445 kts | 189° |
| 2026-05-05 22:03 | 41.00355 | -4.21120 | 27368 ft | 441 kts | 189° |
| 2026-05-05 22:03 | 40.97313 | -4.21303 | 26798 ft | 435 kts | 190° |
| 2026-05-05 22:03 | 40.94344 | -4.21483 | 26234 ft | 430 kts | 190° |
| 2026-05-05 22:03 | 40.91338 | -4.21665 | 25666 ft | 425 kts | 190° |
| 2026-05-05 22:04 | 40.88434 | -4.21841 | 25112 ft | 421 kts | 190° |
| 2026-05-05 22:04 | 40.85515 | -4.22020 | 24544 ft | 417 kts | 190° |
| 2026-05-05 22:04 | 40.82628 | -4.22197 | 23958 ft | 415 kts | 190° |
| 2026-05-05 22:04 | 40.79752 | -4.22371 | 23372 ft | 412 kts | 189° |
| 2026-05-05 22:05 | 40.76902 | -4.22542 | 22777 ft | 408 kts | 189° |
| 2026-05-05 22:05 | 40.74075 | -4.22712 | 22215 ft | 405 kts | 189° |
| 2026-05-05 22:05 | 40.71276 | -4.22881 | 21667 ft | 401 kts | 189° |
| 2026-05-05 22:05 | 40.68501 | -4.23047 | 21118 ft | 398 kts | 188° |
| 2026-05-05 22:06 | 40.65737 | -4.23215 | 20571 ft | 395 kts | 188° |
| 2026-05-05 22:06 | 40.63000 | -4.23379 | 20014 ft | 392 kts | 188° |
| 2026-05-05 22:06 | 40.60281 | -4.23542 | 19488 ft | 390 kts | 187° |
| 2026-05-05 22:06 | 40.57573 | -4.23706 | 18954 ft | 389 kts | 187° |
| 2026-05-05 22:07 | 40.54908 | -4.23860 | 18419 ft | 388 kts | 186° |
| 2026-05-05 22:07 | 40.52204 | -4.23627 | 17819 ft | 393 kts | 172° |
| 2026-05-05 22:07 | 40.49581 | -4.22567 | 17265 ft | 395 kts | 162° |
| 2026-05-05 22:07 | 40.47031 | -4.21257 | 16706 ft | 392 kts | 161° |
| 2026-05-05 22:08 | 40.44502 | -4.19934 | 16163 ft | 390 kts | 161° |
| 2026-05-05 22:08 | 40.41990 | -4.18629 | 15623 ft | 387 kts | 161° |
| 2026-05-05 22:08 | 40.39490 | -4.17338 | 15065 ft | 386 kts | 161° |
| 2026-05-05 22:08 | 40.37028 | -4.15950 | 14521 ft | 386 kts | 154° |
| 2026-05-05 22:09 | 40.34881 | -4.13849 | 13973 ft | 387 kts | 135° |
| 2026-05-05 22:09 | 40.33408 | -4.10919 | 13601 ft | 387 kts | 115° |
| 2026-05-05 22:09 | 40.32473 | -4.07605 | 13246 ft | 388 kts | 109° |
| 2026-05-05 22:09 | 40.31648 | -4.04239 | 12902 ft | 387 kts | 108° |
| 2026-05-05 22:10 | 40.30831 | -4.00900 | 12539 ft | 384 kts | 108° |
| 2026-05-05 22:10 | 40.30010 | -3.97580 | 12213 ft | 382 kts | 109° |
| 2026-05-05 22:10 | 40.29188 | -3.94287 | 11871 ft | 379 kts | 109° |
| 2026-05-05 22:10 | 40.28367 | -3.91012 | 11533 ft | 377 kts | 109° |
| 2026-05-05 22:11 | 40.27551 | -3.87766 | 11210 ft | 374 kts | 109° |
| 2026-05-05 22:11 | 40.26750 | -3.84589 | 11001 ft | 360 kts | 109° |
| 2026-05-05 22:11 | 40.25978 | -3.81532 | 10783 ft | 347 kts | 109° |
| 2026-05-05 22:11 | 40.25231 | -3.78579 | 10586 ft | 335 kts | 109° |
| 2026-05-05 22:12 | 40.24519 | -3.75769 | 10396 ft | 325 kts | 109° |
| 2026-05-05 22:12 | 40.23820 | -3.73007 | 10229 ft | 315 kts | 109° |
| 2026-05-05 22:12 | 40.23140 | -3.70323 | 10054 ft | 306 kts | 109° |
| 2026-05-05 22:12 | 40.22472 | -3.67703 | 9891 ft | 302 kts | 109° |
| 2026-05-05 22:13 | 40.21809 | -3.65106 | 9655 ft | 300 kts | 109° |
| 2026-05-05 22:13 | 40.21147 | -3.62517 | 9410 ft | 299 kts | 109° |
| 2026-05-05 22:13 | 40.20489 | -3.59939 | 9168 ft | 298 kts | 109° |
| 2026-05-05 22:13 | 40.19698 | -3.57439 | 8932 ft | 297 kts | 118° |
| 2026-05-05 22:14 | 40.18566 | -3.55197 | 8705 ft | 294 kts | 129° |
| 2026-05-05 22:14 | 40.17219 | -3.53196 | 8466 ft | 292 kts | 135° |
| 2026-05-05 22:14 | 40.15803 | -3.51291 | 8231 ft | 291 kts | 135° |
| 2026-05-05 22:14 | 40.14393 | -3.49417 | 8047 ft | 285 kts | 135° |
| 2026-05-05 22:15 | 40.13038 | -3.47621 | 7993 ft | 279 kts | 135° |
| 2026-05-05 22:15 | 40.11660 | -3.45793 | 7999 ft | 279 kts | 135° |
| 2026-05-05 22:15 | 40.10317 | -3.44011 | 8000 ft | 279 kts | 135° |
| 2026-05-05 22:15 | 40.08956 | -3.42209 | 8001 ft | 279 kts | 135° |
| 2026-05-05 22:16 | 40.07593 | -3.40406 | 7998 ft | 279 kts | 135° |
| 2026-05-05 22:16 | 40.06229 | -3.38607 | 7997 ft | 279 kts | 135° |
| 2026-05-05 22:16 | 40.04865 | -3.36810 | 7997 ft | 279 kts | 135° |
| 2026-05-05 22:16 | 40.03501 | -3.35013 | 8001 ft | 279 kts | 135° |
| 2026-05-05 22:17 | 40.02136 | -3.33215 | 8001 ft | 279 kts | 135° |
| 2026-05-05 22:17 | 40.00902 | -3.31268 | 8000 ft | 280 kts | 118° |
| 2026-05-05 22:17 | 40.00255 | -3.28888 | 8002 ft | 279 kts | 103° |
| 2026-05-05 22:17 | 39.99853 | -3.26412 | 7999 ft | 279 kts | 101° |
| 2026-05-05 22:18 | 39.99486 | -3.23945 | 7995 ft | 272 kts | 100° |
| 2026-05-05 22:18 | 39.99135 | -3.21581 | 7994 ft | 260 kts | 101° |
| 2026-05-05 22:18 | 39.98976 | -3.19264 | 7993 ft | 256 kts | 82° |
| 2026-05-05 22:18 | 39.99599 | -3.17133 | 8000 ft | 251 kts | 52° |
| 2026-05-05 22:19 | 40.00913 | -3.15703 | 8003 ft | 246 kts | 22° |
| 2026-05-05 22:19 | 40.02555 | -3.15193 | 8000 ft | 243 kts | 3° |
| 2026-05-05 22:19 | 40.04243 | -3.15036 | 8000 ft | 244 kts | 1° |
| 2026-05-05 22:19 | 40.05939 | -3.14927 | 8002 ft | 244 kts | 0° |
| 2026-05-05 22:20 | 40.07615 | -3.14825 | 8000 ft | 244 kts | 0° |
| 2026-05-05 22:20 | 40.09288 | -3.15019 | 8002 ft | 241 kts | 340° |
| 2026-05-05 22:20 | 40.10755 | -3.16041 | 8004 ft | 238 kts | 325° |
| 2026-05-05 22:20 | 40.12120 | -3.17230 | 7998 ft | 232 kts | 324° |
| 2026-05-05 22:21 | 40.13407 | -3.18456 | 8000 ft | 228 kts | 321° |
| 2026-05-05 22:21 | 40.14643 | -3.19759 | 8000 ft | 228 kts | 316° |
| 2026-05-05 22:21 | 40.15774 | -3.21214 | 8001 ft | 228 kts | 314° |
| 2026-05-05 22:21 | 40.16905 | -3.22664 | 8003 ft | 228 kts | 316° |
| 2026-05-05 22:22 | 40.18104 | -3.24025 | 7951 ft | 229 kts | 320° |
| 2026-05-05 22:22 | 40.19347 | -3.25316 | 7787 ft | 228 kts | 321° |
| 2026-05-05 22:22 | 40.20593 | -3.26588 | 7612 ft | 227 kts | 321° |
| 2026-05-05 22:22 | 40.21841 | -3.27848 | 7454 ft | 226 kts | 321° |
| 2026-05-05 22:23 | 40.23091 | -3.29098 | 7346 ft | 226 kts | 321° |
| 2026-05-05 22:23 | 40.24324 | -3.30324 | 7198 ft | 224 kts | 322° |
| 2026-05-05 22:23 | 40.25564 | -3.31555 | 7081 ft | 218 kts | 322° |
| 2026-05-05 22:23 | 40.26749 | -3.32728 | 6952 ft | 215 kts | 322° |
| 2026-05-05 22:24 | 40.27938 | -3.33912 | 6782 ft | 214 kts | 322° |
| 2026-05-05 22:24 | 40.29118 | -3.35109 | 6531 ft | 216 kts | 321° |
| 2026-05-05 22:24 | 40.30317 | -3.36329 | 6245 ft | 219 kts | 322° |
| 2026-05-05 22:24 | 40.31527 | -3.37555 | 5905 ft | 219 kts | 322° |
| 2026-05-05 22:25 | 40.32716 | -3.38759 | 5590 ft | 213 kts | 322° |
| 2026-05-05 22:25 | 40.33867 | -3.39927 | 5342 ft | 205 kts | 323° |
| 2026-05-05 22:25 | 40.34974 | -3.41050 | 5050 ft | 198 kts | 323° |
| 2026-05-05 22:25 | 40.36049 | -3.42140 | 4777 ft | 192 kts | 323° |
| 2026-05-05 22:26 | 40.37087 | -3.43192 | 4516 ft | 185 kts | 323° |
| 2026-05-05 22:26 | 40.38086 | -3.44206 | 4272 ft | 177 kts | 323° |
| 2026-05-05 22:26 | 40.39032 | -3.45167 | 4014 ft | 165 kts | 323° |
| 2026-05-05 22:26 | 40.39917 | -3.46066 | 3823 ft | 159 kts | 323° |
| 2026-05-05 22:27 | 40.40781 | -3.46942 | 3600 ft | 159 kts | 323° |
| 2026-05-05 22:27 | 40.41654 | -3.47828 | 3408 ft | 159 kts | 323° |
| 2026-05-05 22:27 | 40.42524 | -3.48711 | 3145 ft | 158 kts | 323° |
| 2026-05-05 22:27 | 40.43360 | -3.49561 | 2930 ft | 144 kts | 322° |
| 2026-05-05 22:28 | 40.44117 | -3.50333 | 2757 ft | 131 kts | 323° |
| 2026-05-05 22:28 | 40.44813 | -3.51040 | 2583 ft | 124 kts | 323° |
| 2026-05-05 22:28 | 40.45490 | -3.51728 | 2434 ft | 123 kts | 324° |
| 2026-05-05 22:28 | 40.46168 | -3.52420 | 2257 ft | 124 kts | 321° |
| 2026-05-05 22:29 | 40.46847 | -3.53114 | 2075 ft | 123 kts | 322° |
| 2026-05-05 22:29 | 40.47526 | -3.53797 | 1931 ft | 122 kts | 323° |
| 2026-05-05 22:29 | 40.48100 | -3.54377 | 1936 ft | 80 kts | 322° |
| 2026-05-05 22:29 | 40.48397 | -3.54686 | 1941 ft | 36 kts | 320° |
| 2026-05-05 22:30 | 40.48578 | -3.54875 | 1948 ft | 31 kts | 323° |
| 2026-05-05 22:30 | 40.48711 | -3.55015 | 1953 ft | 21 kts | 314° |
| 2026-05-05 22:30 | 40.48776 | -3.55138 | 1955 ft | 13 kts | 296° |
| 2026-05-05 22:30 | 40.48815 | -3.55255 | 1956 ft | 15 kts | 292° |
| 2026-05-05 22:31 | 40.48848 | -3.55362 | 1955 ft | 11 kts | 292° |
| 2026-05-05 22:31 | 40.48879 | -3.55438 | 1956 ft | 10 kts | 304° |
| 2026-05-05 22:31 | 40.48929 | -3.55503 | 1958 ft | 11 kts | 320° |
| 2026-05-05 22:31 | 40.48993 | -3.55568 | 1958 ft | 13 kts | 322° |
| 2026-05-05 22:32 | 40.49071 | -3.55647 | 1959 ft | 15 kts | 322° |
| 2026-05-05 22:32 | 40.49148 | -3.55724 | 1963 ft | 14 kts | 322° |
| 2026-05-05 22:32 | 40.49228 | -3.55804 | 1965 ft | 15 kts | 322° |
| 2026-05-05 22:32 | 40.49296 | -3.55891 | 1964 ft | 13 kts | 291° |
| 2026-05-05 22:33 | 40.49299 | -3.56015 | 1963 ft | 12 kts | 270° |
| 2026-05-05 22:33 | 40.49300 | -3.56072 | 1963 ft | 3 kts | 271° |
| 2026-05-05 22:33 | 40.49300 | -3.56092 | 1962 ft | 0 kts | 271° |
| 2026-05-05 22:33 | 40.49300 | -3.56096 | 1962 ft | 2 kts | 271° |
| 2026-05-05 22:34 | 40.49301 | -3.56117 | 1963 ft | 1 kts | 271° |
| 2026-05-05 22:34 | 40.49301 | -3.56118 | 1963 ft | 0 kts | 271° |
| 2026-05-05 22:34 | 40.49301 | -3.56125 | 1963 ft | 1 kts | 271° |
| 2026-05-05 22:34 | 40.49301 | -3.56152 | 1964 ft | 5 kts | 269° |
| 2026-05-05 22:35 | 40.49300 | -3.56188 | 1964 ft | 2 kts | 267° |
| 2026-05-05 22:35 | 40.49295 | -3.56210 | 1965 ft | 4 kts | 248° |
| 2026-05-05 22:35 | 40.49256 | -3.56243 | 1965 ft | 10 kts | 193° |
| 2026-05-05 22:35 | 40.49188 | -3.56245 | 1966 ft | 8 kts | 180° |
| 2026-05-05 22:36 | 40.49151 | -3.56270 | 1967 ft | 5 kts | 236° |
| 2026-05-05 22:36 | 40.49150 | -3.56294 | 1967 ft | 3 kts | 270° |
| 2026-05-05 22:36 | 40.49151 | -3.56322 | 1968 ft | 4 kts | 271° |
| 2026-05-05 22:36 | 40.49151 | -3.56348 | 1972 ft | 2 kts | 270° |
| 2026-05-05 22:37 | 40.49151 | -3.56355 | 1971 ft | 0 kts | 270° |